Hammond, New York
Current Conditions -  °F | °C
As of 4:58 PM on Friday 24 Oct 2014 (Local Time) from KGTB Reporting Station
Haze Haze  
Wind Chill: 57°   Ceiling: Unl
Heat Index: 57°   Visibility: 6mi
Dew Point: 41°   Wind: 8mph
Humidity: 56%   Direction: 270°W
Pressure: 29.86"   Gusts: NA
Location:  44.45°N, 75.69°W
Report Text: KGTB 242058Z AUTO 27007KT 6SM HZ CLR 14/05 A2986 RMK AO2 SLP114 T01390052 56004
Loading
Personal Weather Stations






























Interactive Weather Map
Tropical Storm Tracking
New forecast layout! Learn more

10-Day Weather Forecast

Advertisements
Track Severe Weather on mobile